sensor_id;sensor_type;location;lat;lon;timestamp;P1;durP1;ratioP1;P2;durP2;ratioP2
11675;SDS011;5894;42.768;23.404;2023-11-21T00:01:31;33.63;;;20.00;;
11675;SDS011;5894;42.768;23.404;2023-11-21T00:03:59;33.70;;;19.13;;
11675;SDS011;5894;42.768;23.404;2023-11-21T00:06:28;32.37;;;17.97;;
11675;SDS011;5894;42.768;23.404;2023-11-21T00:08:55;25.17;;;15.23;;
11675;SDS011;5894;42.768;23.404;2023-11-21T00:11:22;24.20;;;15.50;;
11675;SDS011;5894;42.768;23.404;2023-11-21T00:13:50;26.83;;;15.13;;
11675;SDS011;5894;42.768;23.404;2023-11-21T00:16:17;40.47;;;20.17;;
11675;SDS011;5894;42.768;23.404;2023-11-21T00:18:44;38.27;;;19.00;;
11675;SDS011;5894;42.768;23.404;2023-11-21T00:21:12;38.07;;;20.00;;
11675;SDS011;5894;42.768;23.404;2023-11-21T00:23:40;38.07;;;21.20;;
11675;SDS011;5894;42.768;23.404;2023-11-21T00:26:07;42.13;;;20.63;;
11675;SDS011;5894;42.768;23.404;2023-11-21T00:28:35;27.97;;;17.20;;
11675;SDS011;5894;42.768;23.404;2023-11-21T00:31:02;26.97;;;16.20;;
11675;SDS011;5894;42.768;23.404;2023-11-21T00:33:30;25.17;;;14.73;;
11675;SDS011;5894;42.768;23.404;2023-11-21T00:35:57;24.73;;;15.07;;
11675;SDS011;5894;42.768;23.404;2023-11-21T00:38:24;25.20;;;16.37;;
11675;SDS011;5894;42.768;23.404;2023-11-21T00:40:52;34.67;;;19.47;;
11675;SDS011;5894;42.768;23.404;2023-11-21T00:43:21;34.53;;;20.33;;
11675;SDS011;5894;42.768;23.404;2023-11-21T00:45:49;32.30;;;19.03;;
11675;SDS011;5894;42.768;23.404;2023-11-21T00:48:16;29.43;;;17.03;;
11675;SDS011;5894;42.768;23.404;2023-11-21T00:50:43;26.53;;;15.47;;
11675;SDS011;5894;42.768;23.404;2023-11-21T00:53:12;37.10;;;19.13;;
11675;SDS011;5894;42.768;23.404;2023-11-21T00:55:39;44.23;;;24.40;;
11675;SDS011;5894;42.768;23.404;2023-11-21T00:58:07;44.63;;;23.40;;
11675;SDS011;5894;42.768;23.404;2023-11-21T01:00:35;47.07;;;23.90;;
11675;SDS011;5894;42.768;23.404;2023-11-21T01:03:04;43.93;;;21.17;;
11675;SDS011;5894;42.768;23.404;2023-11-21T01:05:33;38.43;;;19.63;;
11675;SDS011;5894;42.768;23.404;2023-11-21T01:08:00;42.97;;;21.60;;
11675;SDS011;5894;42.768;23.404;2023-11-21T01:10:29;40.57;;;22.80;;
11675;SDS011;5894;42.768;23.404;2023-11-21T01:12:56;38.93;;;22.80;;
11675;SDS011;5894;42.768;23.404;2023-11-21T01:15:25;34.37;;;21.40;;
11675;SDS011;5894;42.768;23.404;2023-11-21T01:17:52;37.83;;;22.03;;
11675;SDS011;5894;42.768;23.404;2023-11-21T01:20:19;33.43;;;19.40;;
11675;SDS011;5894;42.768;23.404;2023-11-21T01:22:46;27.13;;;15.83;;
11675;SDS011;5894;42.768;23.404;2023-11-21T01:25:14;21.93;;;13.73;;
11675;SDS011;5894;42.768;23.404;2023-11-21T01:27:41;19.03;;;12.30;;
11675;SDS011;5894;42.768;23.404;2023-11-21T01:30:09;20.73;;;11.27;;
11675;SDS011;5894;42.768;23.404;2023-11-21T01:32:38;22.63;;;12.37;;
11675;SDS011;5894;42.768;23.404;2023-11-21T01:35:06;20.33;;;12.20;;
11675;SDS011;5894;42.768;23.404;2023-11-21T01:37:35;19.70;;;12.90;;
11675;SDS011;5894;42.768;23.404;2023-11-21T01:40:03;26.27;;;14.63;;
11675;SDS011;5894;42.768;23.404;2023-11-21T01:42:35;24.83;;;16.27;;
11675;SDS011;5894;42.768;23.404;2023-11-21T01:45:02;27.97;;;16.93;;
11675;SDS011;5894;42.768;23.404;2023-11-21T01:47:30;29.60;;;18.90;;
11675;SDS011;5894;42.768;23.404;2023-11-21T01:50:00;37.97;;;20.10;;
11675;SDS011;5894;42.768;23.404;2023-11-21T01:52:29;43.17;;;22.63;;
11675;SDS011;5894;42.768;23.404;2023-11-21T01:54:57;44.80;;;25.70;;
11675;SDS011;5894;42.768;23.404;2023-11-21T01:57:25;48.23;;;25.30;;
11675;SDS011;5894;42.768;23.404;2023-11-21T01:59:53;49.83;;;27.03;;
11675;SDS011;5894;42.768;23.404;2023-11-21T02:02:21;50.50;;;27.67;;
11675;SDS011;5894;42.768;23.404;2023-11-21T02:04:48;57.33;;;30.33;;
11675;SDS011;5894;42.768;23.404;2023-11-21T02:07:16;50.70;;;27.63;;
11675;SDS011;5894;42.768;23.404;2023-11-21T02:09:44;46.47;;;24.97;;
11675;SDS011;5894;42.768;23.404;2023-11-21T02:12:11;37.13;;;20.97;;
11675;SDS011;5894;42.768;23.404;2023-11-21T02:14:38;29.17;;;17.87;;
11675;SDS011;5894;42.768;23.404;2023-11-21T02:17:05;26.57;;;17.37;;
11675;SDS011;5894;42.768;23.404;2023-11-21T02:19:33;30.73;;;16.77;;
11675;SDS011;5894;42.768;23.404;2023-11-21T02:22:00;26.47;;;15.40;;
11675;SDS011;5894;42.768;23.404;2023-11-21T02:24:31;23.93;;;14.37;;
11675;SDS011;5894;42.768;23.404;2023-11-21T02:26:58;22.83;;;14.70;;
11675;SDS011;5894;42.768;23.404;2023-11-21T02:29:25;21.77;;;14.00;;
11675;SDS011;5894;42.768;23.404;2023-11-21T02:31:53;24.30;;;14.03;;
11675;SDS011;5894;42.768;23.404;2023-11-21T02:34:21;22.67;;;13.97;;
11675;SDS011;5894;42.768;23.404;2023-11-21T02:36:50;23.23;;;14.00;;
11675;SDS011;5894;42.768;23.404;2023-11-21T02:39:17;24.87;;;14.80;;
11675;SDS011;5894;42.768;23.404;2023-11-21T02:41:48;23.67;;;15.07;;
11675;SDS011;5894;42.768;23.404;2023-11-21T02:44:16;24.33;;;15.53;;
11675;SDS011;5894;42.768;23.404;2023-11-21T02:46:43;26.87;;;15.73;;
11675;SDS011;5894;42.768;23.404;2023-11-21T02:49:10;25.80;;;15.67;;
11675;SDS011;5894;42.768;23.404;2023-11-21T02:51:37;25.53;;;15.73;;
11675;SDS011;5894;42.768;23.404;2023-11-21T02:54:05;23.73;;;14.97;;
11675;SDS011;5894;42.768;23.404;2023-11-21T02:56:33;24.00;;;14.83;;
11675;SDS011;5894;42.768;23.404;2023-11-21T02:59:03;26.30;;;16.47;;
11675;SDS011;5894;42.768;23.404;2023-11-21T03:01:30;24.07;;;14.43;;
11675;SDS011;5894;42.768;23.404;2023-11-21T03:03:57;20.43;;;12.50;;
11675;SDS011;5894;42.768;23.404;2023-11-21T03:06:25;21.40;;;12.27;;
11675;SDS011;5894;42.768;23.404;2023-11-21T03:08:52;21.90;;;13.20;;
11675;SDS011;5894;42.768;23.404;2023-11-21T03:11:19;21.63;;;12.50;;
11675;SDS011;5894;42.768;23.404;2023-11-21T03:13:46;23.83;;;14.33;;
11675;SDS011;5894;42.768;23.404;2023-11-21T03:16:15;30.23;;;16.60;;
11675;SDS011;5894;42.768;23.404;2023-11-21T03:18:42;32.07;;;17.47;;
11675;SDS011;5894;42.768;23.404;2023-11-21T03:21:09;24.87;;;14.03;;
11675;SDS011;5894;42.768;23.404;2023-11-21T03:23:36;23.40;;;11.97;;
11675;SDS011;5894;42.768;23.404;2023-11-21T03:26:04;16.07;;;10.67;;
11675;SDS011;5894;42.768;23.404;2023-11-21T03:28:33;17.97;;;9.93;;
11675;SDS011;5894;42.768;23.404;2023-11-21T03:31:02;16.90;;;10.37;;
11675;SDS011;5894;42.768;23.404;2023-11-21T03:33:30;15.97;;;9.43;;
11675;SDS011;5894;42.768;23.404;2023-11-21T03:35:57;15.97;;;9.97;;
11675;SDS011;5894;42.768;23.404;2023-11-21T03:38:25;14.73;;;9.10;;
11675;SDS011;5894;42.768;23.404;2023-11-21T03:40:52;15.23;;;10.13;;
11675;SDS011;5894;42.768;23.404;2023-11-21T03:43:19;18.93;;;10.50;;
11675;SDS011;5894;42.768;23.404;2023-11-21T03:45:46;18.13;;;11.13;;
11675;SDS011;5894;42.768;23.404;2023-11-21T03:48:16;18.87;;;11.53;;
11675;SDS011;5894;42.768;23.404;2023-11-21T03:50:44;19.77;;;12.87;;
11675;SDS011;5894;42.768;23.404;2023-11-21T03:53:12;23.90;;;14.87;;
11675;SDS011;5894;42.768;23.404;2023-11-21T03:55:39;25.87;;;15.43;;
11675;SDS011;5894;42.768;23.404;2023-11-21T03:58:06;30.87;;;18.07;;
11675;SDS011;5894;42.768;23.404;2023-11-21T04:00:33;35.20;;;19.27;;
11675;SDS011;5894;42.768;23.404;2023-11-21T04:03:00;33.80;;;20.43;;
11675;SDS011;5894;42.768;23.404;2023-11-21T04:05:28;35.60;;;21.30;;
11675;SDS011;5894;42.768;23.404;2023-11-21T04:07:58;41.50;;;21.30;;
11675;SDS011;5894;42.768;23.404;2023-11-21T04:10:25;44.90;;;23.90;;
11675;SDS011;5894;42.768;23.404;2023-11-21T04:12:52;50.33;;;25.77;;
11675;SDS011;5894;42.768;23.404;2023-11-21T04:15:19;56.60;;;25.00;;
11675;SDS011;5894;42.768;23.404;2023-11-21T04:17:47;50.80;;;26.20;;
11675;SDS011;5894;42.768;23.404;2023-11-21T04:20:14;47.07;;;24.87;;
11675;SDS011;5894;42.768;23.404;2023-11-21T04:22:41;46.80;;;24.17;;
11675;SDS011;5894;42.768;23.404;2023-11-21T04:25:11;55.73;;;24.43;;
11675;SDS011;5894;42.768;23.404;2023-11-21T04:27:40;43.30;;;21.47;;
11675;SDS011;5894;42.768;23.404;2023-11-21T04:30:09;39.97;;;19.90;;
11675;SDS011;5894;42.768;23.404;2023-11-21T04:32:37;42.03;;;21.60;;
11675;SDS011;5894;42.768;23.404;2023-11-21T04:35:05;40.43;;;20.70;;
11675;SDS011;5894;42.768;23.404;2023-11-21T04:37:33;39.40;;;22.40;;
11675;SDS011;5894;42.768;23.404;2023-11-21T04:40:01;43.80;;;24.37;;
11675;SDS011;5894;42.768;23.404;2023-11-21T04:42:34;42.87;;;24.33;;
11675;SDS011;5894;42.768;23.404;2023-11-21T04:45:02;55.97;;;28.53;;
11675;SDS011;5894;42.768;23.404;2023-11-21T04:47:33;49.23;;;28.23;;
11675;SDS011;5894;42.768;23.404;2023-11-21T04:50:00;59.20;;;28.60;;
11675;SDS011;5894;42.768;23.404;2023-11-21T04:52:28;65.03;;;32.07;;
11675;SDS011;5894;42.768;23.404;2023-11-21T04:54:54;70.53;;;33.53;;
11675;SDS011;5894;42.768;23.404;2023-11-21T04:57:23;74.87;;;34.97;;
11675;SDS011;5894;42.768;23.404;2023-11-21T04:59:52;64.00;;;31.50;;
11675;SDS011;5894;42.768;23.404;2023-11-21T05:02:19;56.60;;;29.33;;
11675;SDS011;5894;42.768;23.404;2023-11-21T05:04:46;59.63;;;27.43;;
11675;SDS011;5894;42.768;23.404;2023-11-21T05:07:13;51.53;;;24.50;;
11675;SDS011;5894;42.768;23.404;2023-11-21T05:09:41;52.20;;;25.10;;
11675;SDS011;5894;42.768;23.404;2023-11-21T05:12:11;131.77;;;51.70;;
11675;SDS011;5894;42.768;23.404;2023-11-21T05:14:39;138.73;;;45.47;;
11675;SDS011;5894;42.768;23.404;2023-11-21T05:17:08;38.77;;;18.30;;
11675;SDS011;5894;42.768;23.404;2023-11-21T05:19:35;47.60;;;19.97;;
11675;SDS011;5894;42.768;23.404;2023-11-21T05:22:02;73.30;;;22.73;;
11675;SDS011;5894;42.768;23.404;2023-11-21T05:24:31;35.67;;;20.90;;
11675;SDS011;5894;42.768;23.404;2023-11-21T05:26:58;35.53;;;20.63;;
11675;SDS011;5894;42.768;23.404;2023-11-21T05:29:25;57.77;;;21.43;;
11675;SDS011;5894;42.768;23.404;2023-11-21T05:31:52;100.90;;;19.80;;
11675;SDS011;5894;42.768;23.404;2023-11-21T05:34:21;34.80;;;18.67;;
11675;SDS011;5894;42.768;23.404;2023-11-21T05:36:49;36.07;;;18.00;;
11675;SDS011;5894;42.768;23.404;2023-11-21T05:39:16;31.60;;;17.73;;
11675;SDS011;5894;42.768;23.404;2023-11-21T05:41:44;29.30;;;17.07;;
11675;SDS011;5894;42.768;23.404;2023-11-21T05:44:11;31.50;;;18.07;;
11675;SDS011;5894;42.768;23.404;2023-11-21T05:46:39;30.47;;;18.10;;
11675;SDS011;5894;42.768;23.404;2023-11-21T05:49:08;29.73;;;19.67;;
11675;SDS011;5894;42.768;23.404;2023-11-21T05:51:38;30.93;;;18.23;;
11675;SDS011;5894;42.768;23.404;2023-11-21T05:54:05;27.43;;;16.63;;
11675;SDS011;5894;42.768;23.404;2023-11-21T05:56:33;29.33;;;18.53;;
11675;SDS011;5894;42.768;23.404;2023-11-21T05:59:00;38.00;;;23.27;;
11675;SDS011;5894;42.768;23.404;2023-11-21T06:01:28;45.00;;;25.87;;
11675;SDS011;5894;42.768;23.404;2023-11-21T06:03:55;48.70;;;28.20;;
11675;SDS011;5894;42.768;23.404;2023-11-21T06:06:22;52.53;;;29.47;;
11675;SDS011;5894;42.768;23.404;2023-11-21T06:08:51;49.20;;;27.97;;
11675;SDS011;5894;42.768;23.404;2023-11-21T06:11:18;49.13;;;26.40;;
11675;SDS011;5894;42.768;23.404;2023-11-21T06:13:45;44.53;;;24.33;;
11675;SDS011;5894;42.768;23.404;2023-11-21T06:16:13;43.13;;;24.33;;
11675;SDS011;5894;42.768;23.404;2023-11-21T06:18:42;41.03;;;23.73;;
11675;SDS011;5894;42.768;23.404;2023-11-21T06:21:10;44.00;;;25.77;;
11675;SDS011;5894;42.768;23.404;2023-11-21T06:23:37;40.97;;;25.40;;
11675;SDS011;5894;42.768;23.404;2023-11-21T06:26:05;54.60;;;34.80;;
11675;SDS011;5894;42.768;23.404;2023-11-21T06:28:34;57.03;;;38.10;;
11675;SDS011;5894;42.768;23.404;2023-11-21T06:31:01;61.87;;;40.27;;
11675;SDS011;5894;42.768;23.404;2023-11-21T06:33:30;56.03;;;40.90;;
11675;SDS011;5894;42.768;23.404;2023-11-21T06:35:57;50.83;;;37.37;;
11675;SDS011;5894;42.768;23.404;2023-11-21T06:38:25;47.57;;;32.77;;
11675;SDS011;5894;42.768;23.404;2023-11-21T06:40:55;40.83;;;28.60;;
11675;SDS011;5894;42.768;23.404;2023-11-21T06:43:23;40.27;;;26.70;;
11675;SDS011;5894;42.768;23.404;2023-11-21T06:45:50;33.87;;;22.43;;
11675;SDS011;5894;42.768;23.404;2023-11-21T06:48:18;32.30;;;20.53;;
11675;SDS011;5894;42.768;23.404;2023-11-21T06:50:45;30.97;;;20.40;;
11675;SDS011;5894;42.768;23.404;2023-11-21T06:53:13;27.17;;;18.93;;
11675;SDS011;5894;42.768;23.404;2023-11-21T06:55:40;25.73;;;18.97;;
11675;SDS011;5894;42.768;23.404;2023-11-21T06:58:07;25.80;;;18.10;;
11675;SDS011;5894;42.768;23.404;2023-11-21T07:00:35;27.13;;;17.43;;
11675;SDS011;5894;42.768;23.404;2023-11-21T07:03:02;26.97;;;17.63;;
11675;SDS011;5894;42.768;23.404;2023-11-21T07:05:29;27.43;;;18.20;;
11675;SDS011;5894;42.768;23.404;2023-11-21T07:07:57;27.90;;;18.47;;
11675;SDS011;5894;42.768;23.404;2023-11-21T07:10:29;26.73;;;17.23;;
11675;SDS011;5894;42.768;23.404;2023-11-21T07:12:56;24.43;;;16.67;;
11675;SDS011;5894;42.768;23.404;2023-11-21T07:15:23;23.97;;;15.83;;
11675;SDS011;5894;42.768;23.404;2023-11-21T07:17:52;25.07;;;16.07;;
11675;SDS011;5894;42.768;23.404;2023-11-21T07:20:19;23.87;;;16.07;;
11675;SDS011;5894;42.768;23.404;2023-11-21T07:22:46;29.93;;;17.50;;
11675;SDS011;5894;42.768;23.404;2023-11-21T07:25:14;43.00;;;28.80;;
11675;SDS011;5894;42.768;23.404;2023-11-21T07:27:41;41.80;;;26.37;;
11675;SDS011;5894;42.768;23.404;2023-11-21T07:30:08;42.30;;;25.10;;
11675;SDS011;5894;42.768;23.404;2023-11-21T07:32:38;44.00;;;26.33;;
11675;SDS011;5894;42.768;23.404;2023-11-21T07:35:08;41.57;;;26.00;;
11675;SDS011;5894;42.768;23.404;2023-11-21T07:37:35;40.80;;;25.27;;
11675;SDS011;5894;42.768;23.404;2023-11-21T07:40:02;40.93;;;26.20;;
11675;SDS011;5894;42.768;23.404;2023-11-21T07:42:30;39.93;;;26.07;;
11675;SDS011;5894;42.768;23.404;2023-11-21T07:44:59;38.47;;;24.80;;
11675;SDS011;5894;42.768;23.404;2023-11-21T07:47:26;35.17;;;24.27;;
11675;SDS011;5894;42.768;23.404;2023-11-21T07:49:52;34.27;;;22.30;;
11675;SDS011;5894;42.768;23.404;2023-11-21T07:52:22;36.13;;;22.57;;
11675;SDS011;5894;42.768;23.404;2023-11-21T07:54:49;36.23;;;22.17;;
11675;SDS011;5894;42.768;23.404;2023-11-21T07:57:16;39.33;;;22.57;;
11675;SDS011;5894;42.768;23.404;2023-11-21T07:59:44;37.20;;;22.07;;
11675;SDS011;5894;42.768;23.404;2023-11-21T08:02:11;62.30;;;27.43;;
11675;SDS011;5894;42.768;23.404;2023-11-21T08:04:38;48.43;;;25.90;;
11675;SDS011;5894;42.768;23.404;2023-11-21T08:07:05;43.53;;;24.27;;
11675;SDS011;5894;42.768;23.404;2023-11-21T08:09:33;38.47;;;18.93;;
11675;SDS011;5894;42.768;23.404;2023-11-21T08:12:00;30.03;;;16.47;;
11675;SDS011;5894;42.768;23.404;2023-11-21T08:14:28;25.50;;;16.43;;
11675;SDS011;5894;42.768;23.404;2023-11-21T08:16:55;27.97;;;16.70;;
11675;SDS011;5894;42.768;23.404;2023-11-21T08:19:22;29.77;;;17.60;;
11675;SDS011;5894;42.768;23.404;2023-11-21T08:21:51;29.77;;;19.57;;
11675;SDS011;5894;42.768;23.404;2023-11-21T08:24:20;29.80;;;17.87;;
11675;SDS011;5894;42.768;23.404;2023-11-21T08:26:49;30.47;;;17.37;;
11675;SDS011;5894;42.768;23.404;2023-11-21T08:29:16;22.67;;;16.27;;
11675;SDS011;5894;42.768;23.404;2023-11-21T08:31:43;26.13;;;17.53;;
11675;SDS011;5894;42.768;23.404;2023-11-21T08:34:12;27.73;;;17.03;;
11675;SDS011;5894;42.768;23.404;2023-11-21T08:36:41;25.17;;;16.83;;
11675;SDS011;5894;42.768;23.404;2023-11-21T08:39:09;33.53;;;17.00;;
11675;SDS011;5894;42.768;23.404;2023-11-21T08:41:36;24.17;;;15.50;;
11675;SDS011;5894;42.768;23.404;2023-11-21T08:44:05;23.70;;;15.83;;
11675;SDS011;5894;42.768;23.404;2023-11-21T08:46:33;26.20;;;15.97;;
11675;SDS011;5894;42.768;23.404;2023-11-21T08:49:03;24.27;;;16.83;;
11675;SDS011;5894;42.768;23.404;2023-11-21T08:51:31;23.53;;;17.00;;
11675;SDS011;5894;42.768;23.404;2023-11-21T08:53:58;23.40;;;15.50;;
11675;SDS011;5894;42.768;23.404;2023-11-21T08:56:29;26.17;;;16.10;;
11675;SDS011;5894;42.768;23.404;2023-11-21T08:58:56;29.37;;;17.40;;
11675;SDS011;5894;42.768;23.404;2023-11-21T09:01:25;27.80;;;17.20;;
11675;SDS011;5894;42.768;23.404;2023-11-21T09:03:51;34.57;;;18.77;;
11675;SDS011;5894;42.768;23.404;2023-11-21T09:06:19;31.13;;;19.03;;
11675;SDS011;5894;42.768;23.404;2023-11-21T09:08:46;30.00;;;18.17;;
11675;SDS011;5894;42.768;23.404;2023-11-21T09:11:13;31.10;;;18.50;;
11675;SDS011;5894;42.768;23.404;2023-11-21T09:13:40;27.43;;;17.30;;
11675;SDS011;5894;42.768;23.404;2023-11-21T09:16:07;28.63;;;15.40;;
11675;SDS011;5894;42.768;23.404;2023-11-21T09:18:36;24.80;;;16.00;;
11675;SDS011;5894;42.768;23.404;2023-11-21T09:21:03;23.03;;;15.37;;
11675;SDS011;5894;42.768;23.404;2023-11-21T09:23:30;25.30;;;14.90;;
11675;SDS011;5894;42.768;23.404;2023-11-21T09:25:57;21.10;;;14.40;;
11675;SDS011;5894;42.768;23.404;2023-11-21T09:28:26;27.10;;;16.60;;
11675;SDS011;5894;42.768;23.404;2023-11-21T09:30:53;22.73;;;15.40;;
11675;SDS011;5894;42.768;23.404;2023-11-21T09:33:20;27.40;;;16.63;;
11675;SDS011;5894;42.768;23.404;2023-11-21T09:35:51;24.17;;;15.97;;
11675;SDS011;5894;42.768;23.404;2023-11-21T09:38:19;23.90;;;15.77;;
11675;SDS011;5894;42.768;23.404;2023-11-21T09:40:46;23.30;;;16.07;;
11675;SDS011;5894;42.768;23.404;2023-11-21T09:43:16;20.30;;;14.77;;
11675;SDS011;5894;42.768;23.404;2023-11-21T09:45:45;23.40;;;15.53;;
11675;SDS011;5894;42.768;23.404;2023-11-21T09:48:13;24.20;;;15.30;;
11675;SDS011;5894;42.768;23.404;2023-11-21T09:50:41;23.27;;;15.03;;
11675;SDS011;5894;42.768;23.404;2023-11-21T09:53:11;21.10;;;14.10;;
11675;SDS011;5894;42.768;23.404;2023-11-21T09:55:44;21.00;;;13.93;;
11675;SDS011;5894;42.768;23.404;2023-11-21T09:58:12;20.33;;;13.07;;
11675;SDS011;5894;42.768;23.404;2023-11-21T10:00:40;19.97;;;13.47;;
11675;SDS011;5894;42.768;23.404;2023-11-21T10:03:08;21.67;;;14.50;;
11675;SDS011;5894;42.768;23.404;2023-11-21T10:05:37;24.67;;;15.80;;
11675;SDS011;5894;42.768;23.404;2023-11-21T10:08:06;20.73;;;14.67;;
11675;SDS011;5894;42.768;23.404;2023-11-21T10:10:36;20.93;;;14.23;;
11675;SDS011;5894;42.768;23.404;2023-11-21T10:13:06;18.00;;;14.03;;
11675;SDS011;5894;42.768;23.404;2023-11-21T10:15:37;19.17;;;14.07;;
11675;SDS011;5894;42.768;23.404;2023-11-21T10:18:06;19.07;;;13.20;;
11675;SDS011;5894;42.768;23.404;2023-11-21T10:20:34;15.33;;;11.30;;
11675;SDS011;5894;42.768;23.404;2023-11-21T10:23:03;15.77;;;11.20;;
11675;SDS011;5894;42.768;23.404;2023-11-21T10:25:32;18.47;;;12.63;;
11675;SDS011;5894;42.768;23.404;2023-11-21T10:28:03;17.43;;;12.07;;
11675;SDS011;5894;42.768;23.404;2023-11-21T10:30:32;16.97;;;12.23;;
11675;SDS011;5894;42.768;23.404;2023-11-21T10:33:02;17.60;;;12.63;;
11675;SDS011;5894;42.768;23.404;2023-11-21T10:35:39;18.87;;;11.90;;
11675;SDS011;5894;42.768;23.404;2023-11-21T10:38:12;16.37;;;10.57;;
11675;SDS011;5894;42.768;23.404;2023-11-21T10:40:39;14.13;;;10.37;;
11675;SDS011;5894;42.768;23.404;2023-11-21T10:43:09;15.60;;;10.13;;
11675;SDS011;5894;42.768;23.404;2023-11-21T10:45:36;17.60;;;10.50;;
11675;SDS011;5894;42.768;23.404;2023-11-21T10:48:07;18.40;;;10.97;;
11675;SDS011;5894;42.768;23.404;2023-11-21T10:50:36;16.27;;;10.17;;
11675;SDS011;5894;42.768;23.404;2023-11-21T10:53:03;13.80;;;9.90;;
11675;SDS011;5894;42.768;23.404;2023-11-21T10:55:32;14.70;;;10.37;;
11675;SDS011;5894;42.768;23.404;2023-11-21T10:58:01;18.13;;;10.23;;
11675;SDS011;5894;42.768;23.404;2023-11-21T11:00:32;18.37;;;10.93;;
11675;SDS011;5894;42.768;23.404;2023-11-21T11:03:00;14.30;;;10.40;;
11675;SDS011;5894;42.768;23.404;2023-11-21T11:05:29;23.00;;;11.93;;
11675;SDS011;5894;42.768;23.404;2023-11-21T11:07:58;15.93;;;10.97;;
11675;SDS011;5894;42.768;23.404;2023-11-21T11:10:26;17.47;;;11.10;;
11675;SDS011;5894;42.768;23.404;2023-11-21T11:12:55;21.27;;;12.40;;
11675;SDS011;5894;42.768;23.404;2023-11-21T11:15:22;16.57;;;11.70;;
11675;SDS011;5894;42.768;23.404;2023-11-21T11:17:51;19.77;;;11.40;;
11675;SDS011;5894;42.768;23.404;2023-11-21T11:20:22;19.23;;;11.57;;
11675;SDS011;5894;42.768;23.404;2023-11-21T11:22:58;20.53;;;12.03;;
11675;SDS011;5894;42.768;23.404;2023-11-21T11:28:36;21.10;;;12.30;;
11675;SDS011;5894;42.768;23.404;2023-11-21T11:31:12;22.27;;;11.73;;
11675;SDS011;5894;42.768;23.404;2023-11-21T11:33:48;18.13;;;13.50;;
11675;SDS011;5894;42.768;23.404;2023-11-21T11:36:22;20.27;;;13.40;;
11675;SDS011;5894;42.768;23.404;2023-11-21T11:38:54;18.30;;;13.37;;
11675;SDS011;5894;42.768;23.404;2023-11-21T11:41:24;20.13;;;12.87;;
11675;SDS011;5894;42.768;23.404;2023-11-21T11:43:53;18.00;;;13.03;;
11675;SDS011;5894;42.768;23.404;2023-11-21T11:46:20;20.90;;;13.70;;
11675;SDS011;5894;42.768;23.404;2023-11-21T11:49:08;18.90;;;12.65;;
11675;SDS011;5894;42.768;23.404;2023-11-21T11:51:35;17.07;;;12.43;;
11675;SDS011;5894;42.768;23.404;2023-11-21T11:54:02;16.60;;;11.23;;
11675;SDS011;5894;42.768;23.404;2023-11-21T11:56:34;16.30;;;11.60;;
11675;SDS011;5894;42.768;23.404;2023-11-21T11:59:02;17.97;;;11.60;;
11675;SDS011;5894;42.768;23.404;2023-11-21T12:01:32;18.15;;;11.65;;
11675;SDS011;5894;42.768;23.404;2023-11-21T12:07:04;17.57;;;12.63;;
11675;SDS011;5894;42.768;23.404;2023-11-21T12:09:33;17.23;;;11.73;;
11675;SDS011;5894;42.768;23.404;2023-11-21T12:12:01;14.27;;;10.63;;
11675;SDS011;5894;42.768;23.404;2023-11-21T12:14:28;15.23;;;11.77;;
11675;SDS011;5894;42.768;23.404;2023-11-21T12:16:58;13.63;;;10.60;;
11675;SDS011;5894;42.768;23.404;2023-11-21T12:19:27;14.97;;;10.87;;
11675;SDS011;5894;42.768;23.404;2023-11-21T12:21:54;15.17;;;11.30;;
11675;SDS011;5894;42.768;23.404;2023-11-21T12:24:21;18.40;;;13.03;;
11675;SDS011;5894;42.768;23.404;2023-11-21T12:26:49;20.47;;;13.83;;
11675;SDS011;5894;42.768;23.404;2023-11-21T12:29:16;24.10;;;16.30;;
11675;SDS011;5894;42.768;23.404;2023-11-21T12:31:43;26.93;;;16.97;;
11675;SDS011;5894;42.768;23.404;2023-11-21T12:34:13;22.33;;;14.57;;
11675;SDS011;5894;42.768;23.404;2023-11-21T12:36:42;24.90;;;15.83;;
11675;SDS011;5894;42.768;23.404;2023-11-21T12:39:09;23.60;;;16.03;;
11675;SDS011;5894;42.768;23.404;2023-11-21T12:41:36;20.97;;;14.63;;
11675;SDS011;5894;42.768;23.404;2023-11-21T12:44:04;20.07;;;14.47;;
11675;SDS011;5894;42.768;23.404;2023-11-21T12:46:36;20.40;;;14.27;;
11675;SDS011;5894;42.768;23.404;2023-11-21T12:49:07;23.53;;;14.57;;
11675;SDS011;5894;42.768;23.404;2023-11-21T12:51:35;21.80;;;15.17;;
11675;SDS011;5894;42.768;23.404;2023-11-21T12:54:04;22.17;;;15.13;;
11675;SDS011;5894;42.768;23.404;2023-11-21T12:56:33;18.40;;;15.20;;
11675;SDS011;5894;42.768;23.404;2023-11-21T12:59:01;23.93;;;15.53;;
11675;SDS011;5894;42.768;23.404;2023-11-21T13:01:30;19.57;;;15.00;;
11675;SDS011;5894;42.768;23.404;2023-11-21T13:03:57;22.23;;;14.83;;
11675;SDS011;5894;42.768;23.404;2023-11-21T13:06:25;21.03;;;14.77;;
11675;SDS011;5894;42.768;23.404;2023-11-21T13:08:52;19.67;;;14.40;;
11675;SDS011;5894;42.768;23.404;2023-11-21T13:11:23;20.63;;;15.37;;
11675;SDS011;5894;42.768;23.404;2023-11-21T13:13:52;22.13;;;16.50;;
11675;SDS011;5894;42.768;23.404;2023-11-21T13:16:19;19.10;;;14.43;;
11675;SDS011;5894;42.768;23.404;2023-11-21T13:18:47;18.83;;;14.07;;
11675;SDS011;5894;42.768;23.404;2023-11-21T13:21:14;20.90;;;14.97;;
11675;SDS011;5894;42.768;23.404;2023-11-21T13:23:42;20.77;;;13.87;;
11675;SDS011;5894;42.768;23.404;2023-11-21T13:26:11;20.00;;;12.93;;
11675;SDS011;5894;42.768;23.404;2023-11-21T13:28:41;16.63;;;12.60;;
11675;SDS011;5894;42.768;23.404;2023-11-21T13:31:11;19.03;;;13.37;;
11675;SDS011;5894;42.768;23.404;2023-11-21T13:33:51;17.37;;;12.80;;
11675;SDS011;5894;42.768;23.404;2023-11-21T13:36:21;20.30;;;13.67;;
11675;SDS011;5894;42.768;23.404;2023-11-21T13:38:49;21.00;;;14.33;;
11675;SDS011;5894;42.768;23.404;2023-11-21T13:41:17;19.57;;;14.60;;
11675;SDS011;5894;42.768;23.404;2023-11-21T13:43:46;26.60;;;19.57;;
11675;SDS011;5894;42.768;23.404;2023-11-21T13:46:20;29.50;;;20.20;;
11675;SDS011;5894;42.768;23.404;2023-11-21T13:48:48;25.77;;;18.43;;
11675;SDS011;5894;42.768;23.404;2023-11-21T13:51:21;24.90;;;17.57;;
11675;SDS011;5894;42.768;23.404;2023-11-21T13:53:56;30.67;;;20.03;;
11675;SDS011;5894;42.768;23.404;2023-11-21T13:56:24;26.17;;;18.57;;
11675;SDS011;5894;42.768;23.404;2023-11-21T13:58:55;24.67;;;18.50;;
11675;SDS011;5894;42.768;23.404;2023-11-21T14:01:29;23.97;;;16.43;;
11675;SDS011;5894;42.768;23.404;2023-11-21T14:04:13;25.90;;;18.40;;
11675;SDS011;5894;42.768;23.404;2023-11-21T14:06:45;26.67;;;19.03;;
11675;SDS011;5894;42.768;23.404;2023-11-21T14:09:14;27.57;;;19.43;;
11675;SDS011;5894;42.768;23.404;2023-11-21T14:11:49;26.73;;;17.97;;
11675;SDS011;5894;42.768;23.404;2023-11-21T14:14:19;26.57;;;17.87;;
11675;SDS011;5894;42.768;23.404;2023-11-21T14:16:47;26.03;;;17.90;;
11675;SDS011;5894;42.768;23.404;2023-11-21T14:19:15;23.30;;;17.80;;
11675;SDS011;5894;42.768;23.404;2023-11-21T14:21:42;28.07;;;19.47;;
11675;SDS011;5894;42.768;23.404;2023-11-21T14:24:10;28.10;;;19.40;;
11675;SDS011;5894;42.768;23.404;2023-11-21T14:26:39;29.43;;;18.67;;
11675;SDS011;5894;42.768;23.404;2023-11-21T14:29:07;23.73;;;17.63;;
11675;SDS011;5894;42.768;23.404;2023-11-21T14:31:39;26.03;;;18.23;;
11675;SDS011;5894;42.768;23.404;2023-11-21T14:34:06;26.80;;;18.00;;